Northwest, Indiana
Current Conditions -  °F | °C
As of 3:55 AM on Sunday 23 Nov 2014 (Local Time) from KDCY Reporting Station
Clear Clear  
Wind Chill: 45°   Ceiling: Unl
Heat Index: 49°   Visibility: 10mi
Dew Point: 41°   Wind: 10mph
Humidity: 74%   Direction: 170°S
Pressure: 29.93"   Gusts: NA
Location:  38.6165°N, 86.6265°W
Report Text: KDCY 230855Z AUTO 17009KT 10SM CLR 10/05 A2993 RMK AO2 T00950050
Loading
Personal Weather Stations






























Interactive Weather Map New forecast layout! Learn more

10-Day Weather Forecast

Advertisements
Track Severe Weather on mobile